sensor_id;sensor_type;location;lat;lon;timestamp;P1;durP1;ratioP1;P2;durP2;ratioP2
8757;SDS011;4415;42.152;24.744;2023-06-14T00:00:06;6.70;;;5.83;;
8757;SDS011;4415;42.152;24.744;2023-06-14T00:02:32;6.60;;;6.03;;
8757;SDS011;4415;42.152;24.744;2023-06-14T00:04:58;6.87;;;5.93;;
8757;SDS011;4415;42.152;24.744;2023-06-14T00:07:33;5.83;;;5.33;;
8757;SDS011;4415;42.152;24.744;2023-06-14T00:10:03;6.03;;;5.43;;
8757;SDS011;4415;42.152;24.744;2023-06-14T00:12:30;6.03;;;5.63;;
8757;SDS011;4415;42.152;24.744;2023-06-14T00:14:56;6.40;;;6.00;;
8757;SDS011;4415;42.152;24.744;2023-06-14T00:17:22;6.40;;;5.90;;
8757;SDS011;4415;42.152;24.744;2023-06-14T00:19:47;6.47;;;6.00;;
8757;SDS011;4415;42.152;24.744;2023-06-14T00:22:13;6.30;;;5.90;;
8757;SDS011;4415;42.152;24.744;2023-06-14T00:24:38;7.10;;;6.40;;
8757;SDS011;4415;42.152;24.744;2023-06-14T00:27:04;7.10;;;6.43;;
8757;SDS011;4415;42.152;24.744;2023-06-14T00:29:30;6.50;;;6.00;;
8757;SDS011;4415;42.152;24.744;2023-06-14T00:31:56;6.53;;;6.13;;
8757;SDS011;4415;42.152;24.744;2023-06-14T00:34:21;7.23;;;6.57;;
8757;SDS011;4415;42.152;24.744;2023-06-14T00:36:46;7.03;;;6.43;;
8757;SDS011;4415;42.152;24.744;2023-06-14T00:39:12;6.53;;;6.13;;
8757;SDS011;4415;42.152;24.744;2023-06-14T00:41:37;6.40;;;5.90;;
8757;SDS011;4415;42.152;24.744;2023-06-14T00:44:03;7.00;;;6.50;;
8757;SDS011;4415;42.152;24.744;2023-06-14T00:46:29;7.23;;;6.73;;
8757;SDS011;4415;42.152;24.744;2023-06-14T00:48:54;7.77;;;7.13;;
8757;SDS011;4415;42.152;24.744;2023-06-14T00:51:22;7.87;;;7.17;;
8757;SDS011;4415;42.152;24.744;2023-06-14T00:53:47;7.00;;;6.60;;
8757;SDS011;4415;42.152;24.744;2023-06-14T00:56:13;7.80;;;7.30;;
8757;SDS011;4415;42.152;24.744;2023-06-14T00:58:39;7.33;;;6.83;;
8757;SDS011;4415;42.152;24.744;2023-06-14T01:01:05;7.10;;;6.60;;
8757;SDS011;4415;42.152;24.744;2023-06-14T01:03:31;7.87;;;7.07;;
8757;SDS011;4415;42.152;24.744;2023-06-14T01:09:08;7.70;;;7.07;;
8757;SDS011;4415;42.152;24.744;2023-06-14T01:14:28;7.57;;;6.97;;
8757;SDS011;4415;42.152;24.744;2023-06-14T01:16:56;7.50;;;6.90;;
8757;SDS011;4415;42.152;24.744;2023-06-14T01:19:25;8.40;;;7.70;;
8757;SDS011;4415;42.152;24.744;2023-06-14T01:21:53;7.60;;;7.10;;
8757;SDS011;4415;42.152;24.744;2023-06-14T01:24:20;8.33;;;7.73;;
8757;SDS011;4415;42.152;24.744;2023-06-14T01:26:50;8.00;;;7.40;;
8757;SDS011;4415;42.152;24.744;2023-06-14T01:29:20;8.00;;;7.50;;
8757;SDS011;4415;42.152;24.744;2023-06-14T01:31:47;7.73;;;7.13;;
8757;SDS011;4415;42.152;24.744;2023-06-14T01:34:13;7.47;;;6.90;;
8757;SDS011;4415;42.152;24.744;2023-06-14T01:36:38;8.07;;;7.13;;
8757;SDS011;4415;42.152;24.744;2023-06-14T01:39:06;7.63;;;7.03;;
8757;SDS011;4415;42.152;24.744;2023-06-14T01:41:33;8.20;;;7.50;;
8757;SDS011;4415;42.152;24.744;2023-06-14T01:43:59;7.05;;;6.63;;
8757;SDS011;4415;42.152;24.744;2023-06-14T01:46:26;7.67;;;7.13;;
8757;SDS011;4415;42.152;24.744;2023-06-14T01:48:51;7.70;;;7.20;;
8757;SDS011;4415;42.152;24.744;2023-06-14T01:51:16;8.00;;;7.50;;
8757;SDS011;4415;42.152;24.744;2023-06-14T01:53:42;9.53;;;7.23;;
8757;SDS011;4415;42.152;24.744;2023-06-14T01:56:07;8.17;;;7.17;;
8757;SDS011;4415;42.152;24.744;2023-06-14T01:58:33;7.83;;;7.13;;
8757;SDS011;4415;42.152;24.744;2023-06-14T02:00:58;7.67;;;7.03;;
8757;SDS011;4415;42.152;24.744;2023-06-14T02:03:25;7.30;;;6.67;;
8757;SDS011;4415;42.152;24.744;2023-06-14T02:05:51;7.03;;;6.43;;
8757;SDS011;4415;42.152;24.744;2023-06-14T02:08:17;7.70;;;7.00;;
8757;SDS011;4415;42.152;24.744;2023-06-14T02:10:42;8.10;;;7.07;;
8757;SDS011;4415;42.152;24.744;2023-06-14T02:13:08;7.30;;;6.70;;
8757;SDS011;4415;42.152;24.744;2023-06-14T02:15:33;7.43;;;6.83;;
8757;SDS011;4415;42.152;24.744;2023-06-14T02:17:59;7.57;;;6.83;;
8757;SDS011;4415;42.152;24.744;2023-06-14T02:20:26;8.00;;;7.20;;
8757;SDS011;4415;42.152;24.744;2023-06-14T02:22:51;7.13;;;6.50;;
8757;SDS011;4415;42.152;24.744;2023-06-14T02:25:16;7.37;;;6.80;;
8757;SDS011;4415;42.152;24.744;2023-06-14T02:27:42;7.30;;;6.70;;
8757;SDS011;4415;42.152;24.744;2023-06-14T02:30:07;6.73;;;6.23;;
8757;SDS011;4415;42.152;24.744;2023-06-14T02:32:33;6.77;;;6.37;;
8757;SDS011;4415;42.152;24.744;2023-06-14T02:35:01;8.13;;;6.90;;
8757;SDS011;4415;42.152;24.744;2023-06-14T02:37:27;6.67;;;6.10;;
8757;SDS011;4415;42.152;24.744;2023-06-14T02:39:53;7.70;;;7.07;;
8757;SDS011;4415;42.152;24.744;2023-06-14T02:42:18;6.37;;;5.80;;
8757;SDS011;4415;42.152;24.744;2023-06-14T02:44:43;7.00;;;6.47;;
8757;SDS011;4415;42.152;24.744;2023-06-14T02:47:10;6.80;;;6.20;;
8757;SDS011;4415;42.152;24.744;2023-06-14T02:49:35;6.80;;;6.23;;
8757;SDS011;4415;42.152;24.744;2023-06-14T02:52:01;7.27;;;6.27;;
8757;SDS011;4415;42.152;24.744;2023-06-14T02:54:27;7.20;;;6.50;;
8757;SDS011;4415;42.152;24.744;2023-06-14T02:56:52;6.37;;;5.70;;
8757;SDS011;4415;42.152;24.744;2023-06-14T02:59:18;8.77;;;5.77;;
8757;SDS011;4415;42.152;24.744;2023-06-14T03:01:44;6.77;;;5.97;;
8757;SDS011;4415;42.152;24.744;2023-06-14T03:04:10;6.00;;;5.50;;
8757;SDS011;4415;42.152;24.744;2023-06-14T03:06:35;6.53;;;5.93;;
8757;SDS011;4415;42.152;24.744;2023-06-14T03:09:02;6.70;;;5.50;;
8757;SDS011;4415;42.152;24.744;2023-06-14T03:11:31;5.87;;;5.37;;
8757;SDS011;4415;42.152;24.744;2023-06-14T03:13:56;6.90;;;6.20;;
8757;SDS011;4415;42.152;24.744;2023-06-14T03:16:22;6.30;;;5.70;;
8757;SDS011;4415;42.152;24.744;2023-06-14T03:18:50;6.80;;;6.20;;
8757;SDS011;4415;42.152;24.744;2023-06-14T03:21:15;7.00;;;6.40;;
8757;SDS011;4415;42.152;24.744;2023-06-14T03:23:42;6.87;;;6.27;;
8757;SDS011;4415;42.152;24.744;2023-06-14T03:26:08;6.70;;;6.00;;
8757;SDS011;4415;42.152;24.744;2023-06-14T03:28:33;6.57;;;6.07;;
8757;SDS011;4415;42.152;24.744;2023-06-14T03:30:59;8.00;;;6.40;;
8757;SDS011;4415;42.152;24.744;2023-06-14T03:33:25;7.47;;;6.33;;
8757;SDS011;4415;42.152;24.744;2023-06-14T03:35:50;7.97;;;6.33;;
8757;SDS011;4415;42.152;24.744;2023-06-14T03:38:17;8.33;;;6.07;;
8757;SDS011;4415;42.152;24.744;2023-06-14T03:40:42;6.80;;;6.20;;
8757;SDS011;4415;42.152;24.744;2023-06-14T03:43:07;9.43;;;6.30;;
8757;SDS011;4415;42.152;24.744;2023-06-14T03:45:33;9.43;;;6.40;;
8757;SDS011;4415;42.152;24.744;2023-06-14T03:47:58;7.30;;;6.20;;
8757;SDS011;4415;42.152;24.744;2023-06-14T03:50:25;8.07;;;6.20;;
8757;SDS011;4415;42.152;24.744;2023-06-14T03:52:52;6.67;;;5.47;;
8757;SDS011;4415;42.152;24.744;2023-06-14T03:55:17;7.53;;;5.97;;
8757;SDS011;4415;42.152;24.744;2023-06-14T03:57:42;5.83;;;5.20;;
8757;SDS011;4415;42.152;24.744;2023-06-14T04:00:08;5.83;;;5.43;;
8757;SDS011;4415;42.152;24.744;2023-06-14T04:02:34;6.53;;;5.27;;
8757;SDS011;4415;42.152;24.744;2023-06-14T04:05:01;5.40;;;5.00;;
8757;SDS011;4415;42.152;24.744;2023-06-14T04:07:27;7.03;;;5.20;;
8757;SDS011;4415;42.152;24.744;2023-06-14T04:09:53;5.73;;;5.10;;
8757;SDS011;4415;42.152;24.744;2023-06-14T04:12:19;6.10;;;5.67;;
8757;SDS011;4415;42.152;24.744;2023-06-14T04:14:45;6.97;;;6.10;;
8757;SDS011;4415;42.152;24.744;2023-06-14T04:17:10;6.30;;;5.90;;
8757;SDS011;4415;42.152;24.744;2023-06-14T04:19:36;8.30;;;6.07;;
8757;SDS011;4415;42.152;24.744;2023-06-14T04:22:01;7.60;;;6.60;;
8757;SDS011;4415;42.152;24.744;2023-06-14T04:24:27;7.47;;;6.27;;
8757;SDS011;4415;42.152;24.744;2023-06-14T04:26:58;7.60;;;6.30;;
8757;SDS011;4415;42.152;24.744;2023-06-14T04:29:24;10.33;;;6.97;;
8757;SDS011;4415;42.152;24.744;2023-06-14T04:31:51;32.53;;;8.53;;
8757;SDS011;4415;42.152;24.744;2023-06-14T04:34:19;16.85;;;7.30;;
8757;SDS011;4415;42.152;24.744;2023-06-14T04:36:47;8.77;;;6.63;;
8757;SDS011;4415;42.152;24.744;2023-06-14T04:39:21;8.73;;;6.35;;
8757;SDS011;4415;42.152;24.744;2023-06-14T04:41:47;12.50;;;7.38;;
8757;SDS011;4415;42.152;24.744;2023-06-14T04:44:16;8.57;;;7.47;;
8757;SDS011;4415;42.152;24.744;2023-06-14T04:46:43;9.02;;;6.97;;
8757;SDS011;4415;42.152;24.744;2023-06-14T04:49:15;10.37;;;7.63;;
8757;SDS011;4415;42.152;24.744;2023-06-14T04:51:42;9.40;;;7.32;;
8757;SDS011;4415;42.152;24.744;2023-06-14T04:54:08;17.02;;;5.75;;
8757;SDS011;4415;42.152;24.744;2023-06-14T04:56:41;11.80;;;5.20;;
8757;SDS011;4415;42.152;24.744;2023-06-14T04:59:11;9.00;;;6.35;;
8757;SDS011;4415;42.152;24.744;2023-06-14T05:01:36;7.60;;;6.50;;
8757;SDS011;4415;42.152;24.744;2023-06-14T05:04:02;8.38;;;6.97;;
8757;SDS011;4415;42.152;24.744;2023-06-14T05:06:28;9.07;;;7.32;;
8757;SDS011;4415;42.152;24.744;2023-06-14T05:08:54;8.00;;;7.30;;
8757;SDS011;4415;42.152;24.744;2023-06-14T05:11:19;9.45;;;7.03;;
8757;SDS011;4415;42.152;24.744;2023-06-14T05:13:45;9.88;;;7.20;;
8757;SDS011;4415;42.152;24.744;2023-06-14T05:16:11;12.13;;;7.55;;
8757;SDS011;4415;42.152;24.744;2023-06-14T05:18:37;8.32;;;7.53;;
8757;SDS011;4415;42.152;24.744;2023-06-14T05:21:03;7.68;;;6.93;;
8757;SDS011;4415;42.152;24.744;2023-06-14T05:23:31;8.05;;;6.63;;
8757;SDS011;4415;42.152;24.744;2023-06-14T05:25:57;9.82;;;6.90;;
8757;SDS011;4415;42.152;24.744;2023-06-14T05:28:23;7.95;;;7.28;;
8757;SDS011;4415;42.152;24.744;2023-06-14T05:30:48;10.10;;;8.10;;
8757;SDS011;4415;42.152;24.744;2023-06-14T05:33:15;11.73;;;7.75;;
8757;SDS011;4415;42.152;24.744;2023-06-14T05:35:40;10.57;;;9.52;;
8757;SDS011;4415;42.152;24.744;2023-06-14T05:38:05;11.32;;;10.18;;
8757;SDS011;4415;42.152;24.744;2023-06-14T05:40:32;9.35;;;8.63;;
8757;SDS011;4415;42.152;24.744;2023-06-14T05:42:58;12.00;;;9.98;;
8757;SDS011;4415;42.152;24.744;2023-06-14T05:45:24;11.68;;;10.52;;
8757;SDS011;4415;42.152;24.744;2023-06-14T05:47:49;11.27;;;10.13;;
8757;SDS011;4415;42.152;24.744;2023-06-14T05:50:15;11.35;;;10.35;;
8757;SDS011;4415;42.152;24.744;2023-06-14T05:52:41;10.55;;;9.63;;
8757;SDS011;4415;42.152;24.744;2023-06-14T05:55:06;13.32;;;9.98;;
8757;SDS011;4415;42.152;24.744;2023-06-14T05:57:32;10.40;;;9.50;;
8757;SDS011;4415;42.152;24.744;2023-06-14T05:59:57;10.68;;;9.65;;
8757;SDS011;4415;42.152;24.744;2023-06-14T06:02:23;10.85;;;9.80;;
8757;SDS011;4415;42.152;24.744;2023-06-14T06:04:49;12.57;;;9.80;;
8757;SDS011;4415;42.152;24.744;2023-06-14T06:07:14;13.52;;;9.48;;
8757;SDS011;4415;42.152;24.744;2023-06-14T06:09:40;12.52;;;8.93;;
8757;SDS011;4415;42.152;24.744;2023-06-14T06:12:06;11.00;;;9.32;;
8757;SDS011;4415;42.152;24.744;2023-06-14T06:14:32;10.50;;;9.27;;
8757;SDS011;4415;42.152;24.744;2023-06-14T06:16:57;8.95;;;8.10;;
8757;SDS011;4415;42.152;24.744;2023-06-14T06:19:23;9.52;;;8.52;;
8757;SDS011;4415;42.152;24.744;2023-06-14T06:21:49;9.32;;;8.50;;
8757;SDS011;4415;42.152;24.744;2023-06-14T06:24:14;9.88;;;8.93;;
8757;SDS011;4415;42.152;24.744;2023-06-14T06:26:40;9.05;;;8.18;;
8757;SDS011;4415;42.152;24.744;2023-06-14T06:29:05;10.48;;;8.93;;
8757;SDS011;4415;42.152;24.744;2023-06-14T06:31:31;9.50;;;8.77;;
8757;SDS011;4415;42.152;24.744;2023-06-14T06:33:56;9.63;;;8.70;;
8757;SDS011;4415;42.152;24.744;2023-06-14T06:36:22;8.70;;;7.93;;
8757;SDS011;4415;42.152;24.744;2023-06-14T06:38:48;8.32;;;7.63;;
8757;SDS011;4415;42.152;24.744;2023-06-14T06:41:13;8.27;;;7.57;;
8757;SDS011;4415;42.152;24.744;2023-06-14T06:43:39;10.45;;;8.52;;
8757;SDS011;4415;42.152;24.744;2023-06-14T06:46:04;8.63;;;7.90;;
8757;SDS011;4415;42.152;24.744;2023-06-14T06:48:30;10.05;;;9.07;;
8757;SDS011;4415;42.152;24.744;2023-06-14T06:50:55;9.57;;;8.68;;
8757;SDS011;4415;42.152;24.744;2023-06-14T06:53:21;10.52;;;9.60;;
8757;SDS011;4415;42.152;24.744;2023-06-14T06:55:46;10.95;;;10.05;;
8757;SDS011;4415;42.152;24.744;2023-06-14T06:58:12;12.00;;;11.10;;
8757;SDS011;4415;42.152;24.744;2023-06-14T07:00:38;11.25;;;10.15;;
8757;SDS011;4415;42.152;24.744;2023-06-14T07:03:04;11.13;;;10.15;;
8757;SDS011;4415;42.152;24.744;2023-06-14T07:05:30;11.32;;;10.35;;
8757;SDS011;4415;42.152;24.744;2023-06-14T07:07:56;11.40;;;10.30;;
8757;SDS011;4415;42.152;24.744;2023-06-14T07:10:21;12.13;;;10.05;;
8757;SDS011;4415;42.152;24.744;2023-06-14T07:12:47;11.73;;;10.15;;
8757;SDS011;4415;42.152;24.744;2023-06-14T07:15:12;22.13;;;19.48;;
8757;SDS011;4415;42.152;24.744;2023-06-14T07:17:38;13.95;;;10.50;;
8757;SDS011;4415;42.152;24.744;2023-06-14T07:20:04;10.98;;;10.13;;
8757;SDS011;4415;42.152;24.744;2023-06-14T07:22:39;11.45;;;10.55;;
8757;SDS011;4415;42.152;24.744;2023-06-14T07:25:06;10.68;;;9.88;;
8757;SDS011;4415;42.152;24.744;2023-06-14T07:27:33;11.40;;;10.32;;
8757;SDS011;4415;42.152;24.744;2023-06-14T07:29:59;11.38;;;10.40;;
8757;SDS011;4415;42.152;24.744;2023-06-14T07:32:24;11.63;;;10.63;;
8757;SDS011;4415;42.152;24.744;2023-06-14T07:34:50;11.40;;;10.45;;
8757;SDS011;4415;42.152;24.744;2023-06-14T07:37:15;12.40;;;11.40;;
8757;SDS011;4415;42.152;24.744;2023-06-14T07:39:41;12.02;;;10.98;;
8757;SDS011;4415;42.152;24.744;2023-06-14T07:42:06;10.88;;;9.80;;
8757;SDS011;4415;42.152;24.744;2023-06-14T07:44:32;10.55;;;9.25;;
8757;SDS011;4415;42.152;24.744;2023-06-14T07:46:57;10.40;;;8.88;;
8757;SDS011;4415;42.152;24.744;2023-06-14T07:49:26;9.27;;;8.52;;
8757;SDS011;4415;42.152;24.744;2023-06-14T07:51:51;8.70;;;7.90;;
8757;SDS011;4415;42.152;24.744;2023-06-14T07:54:18;9.48;;;8.60;;
8757;SDS011;4415;42.152;24.744;2023-06-14T07:56:43;9.45;;;8.65;;
8757;SDS011;4415;42.152;24.744;2023-06-14T07:59:09;9.32;;;8.45;;
8757;SDS011;4415;42.152;24.744;2023-06-14T08:01:36;8.60;;;7.95;;
8757;SDS011;4415;42.152;24.744;2023-06-14T08:04:01;9.43;;;8.70;;
8757;SDS011;4415;42.152;24.744;2023-06-14T08:06:26;11.02;;;8.80;;
8757;SDS011;4415;42.152;24.744;2023-06-14T08:08:52;8.55;;;7.95;;
8757;SDS011;4415;42.152;24.744;2023-06-14T08:11:17;9.35;;;8.55;;
8757;SDS011;4415;42.152;24.744;2023-06-14T08:13:43;10.55;;;9.65;;
8757;SDS011;4415;42.152;24.744;2023-06-14T08:16:08;11.25;;;10.38;;
8757;SDS011;4415;42.152;24.744;2023-06-14T08:18:34;10.95;;;10.07;;
8757;SDS011;4415;42.152;24.744;2023-06-14T08:20:59;9.45;;;8.65;;
8757;SDS011;4415;42.152;24.744;2023-06-14T08:23:25;11.07;;;10.00;;
8757;SDS011;4415;42.152;24.744;2023-06-14T08:25:50;10.70;;;9.70;;
8757;SDS011;4415;42.152;24.744;2023-06-14T08:28:16;9.48;;;8.70;;
8757;SDS011;4415;42.152;24.744;2023-06-14T08:30:42;12.07;;;10.88;;
8757;SDS011;4415;42.152;24.744;2023-06-14T08:33:07;17.58;;;13.73;;
8757;SDS011;4415;42.152;24.744;2023-06-14T08:35:33;12.35;;;11.23;;
8757;SDS011;4415;42.152;24.744;2023-06-14T08:38:02;9.82;;;8.88;;
8757;SDS011;4415;42.152;24.744;2023-06-14T08:40:28;10.20;;;9.32;;
8757;SDS011;4415;42.152;24.744;2023-06-14T08:42:55;11.10;;;10.35;;
8757;SDS011;4415;42.152;24.744;2023-06-14T08:45:22;10.13;;;9.38;;
8757;SDS011;4415;42.152;24.744;2023-06-14T08:47:49;13.07;;;11.63;;
8757;SDS011;4415;42.152;24.744;2023-06-14T08:50:23;17.17;;;15.43;;
8757;SDS011;4415;42.152;24.744;2023-06-14T08:52:54;16.38;;;14.43;;
8757;SDS011;4415;42.152;24.744;2023-06-14T08:55:22;12.38;;;11.35;;
8757;SDS011;4415;42.152;24.744;2023-06-14T08:57:53;11.27;;;10.10;;
8757;SDS011;4415;42.152;24.744;2023-06-14T09:00:20;10.95;;;10.25;;
8757;SDS011;4415;42.152;24.744;2023-06-14T09:02:47;19.65;;;17.13;;
8757;SDS011;4415;42.152;24.744;2023-06-14T09:05:13;25.52;;;17.05;;
8757;SDS011;4415;42.152;24.744;2023-06-14T09:07:39;12.27;;;9.93;;
8757;SDS011;4415;42.152;24.744;2023-06-14T09:10:10;9.63;;;9.02;;
8757;SDS011;4415;42.152;24.744;2023-06-14T09:12:37;13.40;;;12.23;;
8757;SDS011;4415;42.152;24.744;2023-06-14T09:15:04;9.85;;;9.05;;
8757;SDS011;4415;42.152;24.744;2023-06-14T09:17:38;28.45;;;21.20;;
8757;SDS011;4415;42.152;24.744;2023-06-14T09:20:04;9.70;;;8.98;;
8757;SDS011;4415;42.152;24.744;2023-06-14T09:22:32;18.27;;;13.95;;
8757;SDS011;4415;42.152;24.744;2023-06-14T09:24:58;13.05;;;11.93;;
8757;SDS011;4415;42.152;24.744;2023-06-14T09:27:27;11.85;;;10.80;;
8757;SDS011;4415;42.152;24.744;2023-06-14T09:29:54;12.20;;;11.10;;
8757;SDS011;4415;42.152;24.744;2023-06-14T09:32:22;14.23;;;12.77;;
8757;SDS011;4415;42.152;24.744;2023-06-14T09:34:48;15.35;;;13.82;;
8757;SDS011;4415;42.152;24.744;2023-06-14T09:37:27;19.90;;;16.42;;
8757;SDS011;4415;42.152;24.744;2023-06-14T09:39:56;10.90;;;9.85;;
8757;SDS011;4415;42.152;24.744;2023-06-14T09:42:23;12.15;;;11.05;;
8757;SDS011;4415;42.152;24.744;2023-06-14T09:44:51;10.27;;;9.25;;
8757;SDS011;4415;42.152;24.744;2023-06-14T09:47:17;10.23;;;9.18;;
8757;SDS011;4415;42.152;24.744;2023-06-14T09:49:43;10.85;;;9.82;;
8757;SDS011;4415;42.152;24.744;2023-06-14T09:52:15;9.75;;;8.95;;
8757;SDS011;4415;42.152;24.744;2023-06-14T09:54:44;9.82;;;9.05;;
8757;SDS011;4415;42.152;24.744;2023-06-14T09:57:12;13.65;;;10.13;;
8757;SDS011;4415;42.152;24.744;2023-06-14T09:59:42;18.27;;;14.70;;
8757;SDS011;4415;42.152;24.744;2023-06-14T10:02:12;14.48;;;13.00;;
8757;SDS011;4415;42.152;24.744;2023-06-14T10:05:02;29.80;;;21.00;;
8757;SDS011;4415;42.152;24.744;2023-06-14T10:07:30;12.32;;;10.63;;
8757;SDS011;4415;42.152;24.744;2023-06-14T10:10:00;10.98;;;10.18;;
8757;SDS011;4415;42.152;24.744;2023-06-14T10:12:26;11.00;;;10.00;;
8757;SDS011;4415;42.152;24.744;2023-06-14T10:14:52;10.73;;;9.93;;
8757;SDS011;4415;42.152;24.744;2023-06-14T10:17:23;10.40;;;9.70;;
8757;SDS011;4415;42.152;24.744;2023-06-14T10:20:03;10.38;;;9.68;;
8757;SDS011;4415;42.152;24.744;2023-06-14T10:22:55;10.95;;;10.00;;
8757;SDS011;4415;42.152;24.744;2023-06-14T10:25:30;13.40;;;12.05;;
8757;SDS011;4415;42.152;24.744;2023-06-14T10:28:03;12.93;;;11.82;;
8757;SDS011;4415;42.152;24.744;2023-06-14T10:38:56;12.70;;;11.60;;
8757;SDS011;4415;42.152;24.744;2023-06-14T10:41:23;12.73;;;11.57;;
8757;SDS011;4415;42.152;24.744;2023-06-14T10:43:50;15.35;;;11.77;;
8757;SDS011;4415;42.152;24.744;2023-06-14T10:46:19;14.85;;;12.15;;
8757;SDS011;4415;42.152;24.744;2023-06-14T10:48:48;12.75;;;11.30;;
8757;SDS011;4415;42.152;24.744;2023-06-14T10:51:20;11.73;;;10.85;;
8757;SDS011;4415;42.152;24.744;2023-06-14T10:53:46;12.18;;;11.27;;
8757;SDS011;4415;42.152;24.744;2023-06-14T10:59:12;11.93;;;11.00;;
8757;SDS011;4415;42.152;24.744;2023-06-14T11:01:45;11.52;;;10.68;;
8757;SDS011;4415;42.152;24.744;2023-06-14T11:04:48;11.15;;;10.15;;
8757;SDS011;4415;42.152;24.744;2023-06-14T11:10:09;12.30;;;11.18;;
8757;SDS011;4415;42.152;24.744;2023-06-14T11:13:00;12.15;;;10.80;;
8757;SDS011;4415;42.152;24.744;2023-06-14T11:15:29;10.70;;;9.90;;
8757;SDS011;4415;42.152;24.744;2023-06-14T11:18:03;11.00;;;9.95;;
8757;SDS011;4415;42.152;24.744;2023-06-14T11:20:30;11.02;;;10.05;;
8757;SDS011;4415;42.152;24.744;2023-06-14T11:22:58;11.32;;;10.57;;
8757;SDS011;4415;42.152;24.744;2023-06-14T11:25:24;11.75;;;10.55;;
8757;SDS011;4415;42.152;24.744;2023-06-14T11:27:49;10.73;;;9.77;;
8757;SDS011;4415;42.152;24.744;2023-06-14T11:30:16;11.93;;;10.80;;
8757;SDS011;4415;42.152;24.744;2023-06-14T11:32:41;11.63;;;10.57;;
8757;SDS011;4415;42.152;24.744;2023-06-14T11:35:08;11.52;;;10.38;;
8757;SDS011;4415;42.152;24.744;2023-06-14T11:37:35;11.90;;;11.00;;
8757;SDS011;4415;42.152;24.744;2023-06-14T11:40:02;12.40;;;11.20;;
8757;SDS011;4415;42.152;24.744;2023-06-14T11:42:34;11.85;;;10.95;;
8757;SDS011;4415;42.152;24.744;2023-06-14T11:45:00;11.90;;;11.07;;
8757;SDS011;4415;42.152;24.744;2023-06-14T11:47:34;10.80;;;10.02;;
8757;SDS011;4415;42.152;24.744;2023-06-14T11:50:03;11.57;;;10.77;;
8757;SDS011;4415;42.152;24.744;2023-06-14T11:52:31;9.80;;;9.20;;
8757;SDS011;4415;42.152;24.744;2023-06-14T11:54:57;13.45;;;10.10;;
8757;SDS011;4415;42.152;24.744;2023-06-14T11:57:24;11.30;;;10.38;;
8757;SDS011;4415;42.152;24.744;2023-06-14T11:59:50;12.40;;;11.40;;
8757;SDS011;4415;42.152;24.744;2023-06-14T12:02:16;11.70;;;10.75;;
8757;SDS011;4415;42.152;24.744;2023-06-14T12:04:44;12.02;;;11.07;;
8757;SDS011;4415;42.152;24.744;2023-06-14T12:07:12;11.68;;;10.73;;
8757;SDS011;4415;42.152;24.744;2023-06-14T12:09:42;12.40;;;11.30;;
8757;SDS011;4415;42.152;24.744;2023-06-14T12:12:34;11.80;;;10.80;;
8757;SDS011;4415;42.152;24.744;2023-06-14T12:15:02;11.23;;;10.40;;
8757;SDS011;4415;42.152;24.744;2023-06-14T12:17:31;11.40;;;10.55;;
8757;SDS011;4415;42.152;24.744;2023-06-14T12:19:58;11.73;;;10.70;;
8757;SDS011;4415;42.152;24.744;2023-06-14T12:22:23;12.02;;;11.13;;
8757;SDS011;4415;42.152;24.744;2023-06-14T12:24:48;13.20;;;12.20;;
8757;SDS011;4415;42.152;24.744;2023-06-14T12:27:14;15.07;;;12.02;;
8757;SDS011;4415;42.152;24.744;2023-06-14T12:29:44;13.18;;;12.23;;
8757;SDS011;4415;42.152;24.744;2023-06-14T12:32:09;13.10;;;12.10;;
8757;SDS011;4415;42.152;24.744;2023-06-14T12:34:35;12.60;;;11.55;;
8757;SDS011;4415;42.152;24.744;2023-06-14T12:37:01;12.05;;;11.15;;
8757;SDS011;4415;42.152;24.744;2023-06-14T12:39:28;12.88;;;11.77;;
8757;SDS011;4415;42.152;24.744;2023-06-14T12:41:55;12.48;;;11.48;;
8757;SDS011;4415;42.152;24.744;2023-06-14T12:44:20;12.52;;;11.40;;
8757;SDS011;4415;42.152;24.744;2023-06-14T12:46:46;11.32;;;10.52;;
8757;SDS011;4415;42.152;24.744;2023-06-14T12:49:12;11.98;;;10.98;;
8757;SDS011;4415;42.152;24.744;2023-06-14T12:51:38;11.73;;;10.75;;
8757;SDS011;4415;42.152;24.744;2023-06-14T12:54:04;12.48;;;11.40;;
8757;SDS011;4415;42.152;24.744;2023-06-14T12:56:30;10.40;;;9.60;;
8757;SDS011;4415;42.152;24.744;2023-06-14T12:58:55;11.68;;;10.65;;
8757;SDS011;4415;42.152;24.744;2023-06-14T13:01:21;12.57;;;11.40;;
8757;SDS011;4415;42.152;24.744;2023-06-14T13:03:47;11.65;;;10.65;;
8757;SDS011;4415;42.152;24.744;2023-06-14T13:06:12;11.70;;;10.55;;
8757;SDS011;4415;42.152;24.744;2023-06-14T13:08:38;11.90;;;10.93;;
8757;SDS011;4415;42.152;24.744;2023-06-14T13:11:03;11.30;;;10.27;;
8757;SDS011;4415;42.152;24.744;2023-06-14T13:13:28;10.85;;;10.05;;
8757;SDS011;4415;42.152;24.744;2023-06-14T13:15:54;10.85;;;9.98;;
8757;SDS011;4415;42.152;24.744;2023-06-14T13:18:19;12.15;;;11.23;;
8757;SDS011;4415;42.152;24.744;2023-06-14T13:20:46;11.95;;;10.85;;
8757;SDS011;4415;42.152;24.744;2023-06-14T13:23:12;12.57;;;11.32;;
8757;SDS011;4415;42.152;24.744;2023-06-14T13:25:37;12.48;;;11.38;;
8757;SDS011;4415;42.152;24.744;2023-06-14T13:28:04;10.65;;;9.60;;
8757;SDS011;4415;42.152;24.744;2023-06-14T13:30:30;10.90;;;10.00;;
8757;SDS011;4415;42.152;24.744;2023-06-14T13:32:55;11.32;;;10.52;;
8757;SDS011;4415;42.152;24.744;2023-06-14T13:35:22;13.25;;;10.98;;
8757;SDS011;4415;42.152;24.744;2023-06-14T13:37:48;12.25;;;10.98;;
8757;SDS011;4415;42.152;24.744;2023-06-14T13:40:13;10.82;;;10.00;;
8757;SDS011;4415;42.152;24.744;2023-06-14T13:42:39;11.43;;;10.63;;
8757;SDS011;4415;42.152;24.744;2023-06-14T13:45:05;12.55;;;11.65;;
8757;SDS011;4415;42.152;24.744;2023-06-14T13:47:31;12.63;;;11.63;;
8757;SDS011;4415;42.152;24.744;2023-06-14T13:49:57;11.77;;;10.88;;
8757;SDS011;4415;42.152;24.744;2023-06-14T13:52:23;13.55;;;12.23;;
8757;SDS011;4415;42.152;24.744;2023-06-14T13:54:49;12.63;;;11.68;;
8757;SDS011;4415;42.152;24.744;2023-06-14T13:57:15;13.15;;;12.05;;
8757;SDS011;4415;42.152;24.744;2023-06-14T13:59:43;12.13;;;11.23;;
8757;SDS011;4415;42.152;24.744;2023-06-14T14:02:10;11.88;;;10.80;;
8757;SDS011;4415;42.152;24.744;2023-06-14T14:04:36;10.45;;;9.70;;
8757;SDS011;4415;42.152;24.744;2023-06-14T14:07:06;10.38;;;9.68;;
8757;SDS011;4415;42.152;24.744;2023-06-14T14:09:32;9.73;;;9.07;;
8757;SDS011;4415;42.152;24.744;2023-06-14T14:11:59;8.52;;;7.90;;
8757;SDS011;4415;42.152;24.744;2023-06-14T14:14:25;8.73;;;8.02;;
8757;SDS011;4415;42.152;24.744;2023-06-14T14:16:50;7.72;;;7.22;;
8757;SDS011;4415;42.152;24.744;2023-06-14T14:19:17;7.85;;;7.25;;
8757;SDS011;4415;42.152;24.744;2023-06-14T14:21:44;7.25;;;6.75;;
8757;SDS011;4415;42.152;24.744;2023-06-14T14:24:09;6.80;;;6.30;;
8757;SDS011;4415;42.152;24.744;2023-06-14T14:26:35;7.30;;;6.57;;
8757;SDS011;4415;42.152;24.744;2023-06-14T14:29:00;7.03;;;6.43;;
8757;SDS011;4415;42.152;24.744;2023-06-14T14:31:27;7.40;;;6.93;;
8757;SDS011;4415;42.152;24.744;2023-06-14T14:33:52;6.97;;;6.28;;
8757;SDS011;4415;42.152;24.744;2023-06-14T14:36:18;6.35;;;5.95;;
8757;SDS011;4415;42.152;24.744;2023-06-14T14:38:44;6.32;;;5.82;;
8757;SDS011;4415;42.152;24.744;2023-06-14T14:41:10;6.07;;;5.57;;
8757;SDS011;4415;42.152;24.744;2023-06-14T14:43:35;5.38;;;4.97;;
8757;SDS011;4415;42.152;24.744;2023-06-14T14:46:01;5.45;;;4.95;;
8757;SDS011;4415;42.152;24.744;2023-06-14T14:48:26;6.65;;;6.07;;
8757;SDS011;4415;42.152;24.744;2023-06-14T14:50:52;7.43;;;5.50;;
8757;SDS011;4415;42.152;24.744;2023-06-14T14:53:17;5.38;;;4.97;;
8757;SDS011;4415;42.152;24.744;2023-06-14T14:55:43;5.03;;;4.65;;
8757;SDS011;4415;42.152;24.744;2023-06-14T14:58:09;5.05;;;4.75;;
8757;SDS011;4415;42.152;24.744;2023-06-14T15:00:34;5.43;;;5.03;;
8757;SDS011;4415;42.152;24.744;2023-06-14T15:03:00;5.20;;;4.70;;
8757;SDS011;4415;42.152;24.744;2023-06-14T15:05:25;5.05;;;4.68;;
8757;SDS011;4415;42.152;24.744;2023-06-14T15:07:51;5.20;;;4.90;;